Time;durP1;ratioP1;P1;durP2;ratioP2;P2;SDS_P1;SDS_P2;PMS_P1;PMS_P2;Temp;Humidity;BMP_temperature;BMP_pressure;BME280_temperature;BME280_humidity;BME280_pressure;Samples;Min_cycle;Max_cycle;Signal;HPM_P1;HPM_P2
2021/03/14 00:00:37;;;;;;;9.02;0.98;;;10.40;99.90;;;9.88;68.47;99824.22;5027550;28;20037;-45
2021/03/14 00:03:08;;;;;;;13.20;1.20;;;10.40;99.90;;;9.86;68.69;99826.16;5028362;28;20048;-44
2021/03/14 00:05:36;;;;;;;8.98;1.17;;;10.40;99.90;;;9.86;68.79;99823.53;5027368;28;20479;-44
2021/03/14 00:08:07;;;;;;;8.43;0.75;;;10.40;99.90;;;9.83;68.75;99829.06;5027311;28;20029;-43
2021/03/14 00:10:34;;;;;;;7.45;0.80;;;10.40;99.90;;;9.79;68.71;99818.16;5027227;28;20036;-47
2021/03/14 00:13:03;;;;;;;9.75;1.15;;;10.40;99.90;;;9.82;68.52;99820.44;5027381;28;20060;-48
2021/03/14 00:15:28;;;;;;;13.80;1.13;;;10.30;99.90;;;9.82;68.54;99817.03;5026774;28;20057;-47
2021/03/14 00:17:54;;;;;;;9.70;0.80;;;10.40;99.90;;;9.80;68.62;99818.97;5027411;28;20063;-45
2021/03/14 00:20:21;;;;;;;14.65;1.25;;;10.40;99.90;;;9.77;68.57;99827.88;5028396;28;20381;-44
2021/03/14 00:22:46;;;;;;;7.80;0.85;;;10.30;99.90;;;9.73;68.99;99823.16;5027396;28;20029;-45
2021/03/14 00:25:14;;;;;;;7.20;0.93;;;10.30;99.90;;;9.82;68.06;99817.84;5010456;28;20033;-44
2021/03/14 00:27:39;;;;;;;9.75;0.88;;;10.30;99.90;;;9.89;67.43;99815.44;5026322;28;20033;-44
2021/03/14 00:30:07;;;;;;;10.77;0.80;;;10.40;99.90;;;9.90;67.34;99815.28;5027995;28;20127;-47
2021/03/14 00:32:33;;;;;;;8.02;0.57;;;10.50;99.90;;;9.88;67.53;99821.59;5027209;28;20060;-45
2021/03/14 00:34:59;;;;;;;8.10;0.80;;;10.40;99.90;;;9.84;67.52;99810.69;5025760;28;20150;-44
2021/03/14 00:37:26;;;;;;;9.13;0.70;;;10.40;99.90;;;9.88;67.28;99812.00;5026605;28;20030;-44
2021/03/14 00:39:51;;;;;;;12.90;1.13;;;10.40;99.90;;;9.90;66.93;99820.47;5030277;28;20088;-47
2021/03/14 00:42:18;;;;;;;5.40;0.65;;;10.40;99.90;;;9.94;66.43;99818.34;5031140;28;20493;-48
2021/03/14 00:44:44;;;;;;;15.77;1.08;;;10.50;99.90;;;9.96;66.43;99808.59;5030860;28;20459;-43
2021/03/14 00:47:11;;;;;;;6.13;0.70;;;10.50;99.90;;;9.95;66.40;99797.38;5032221;28;20026;-48
2021/03/14 00:49:37;;;;;;;9.63;0.75;;;10.50;99.90;;;9.93;66.49;99793.31;5030982;28;20397;-46
2021/03/14 00:52:04;;;;;;;6.97;0.70;;;10.50;99.90;;;9.90;66.53;99784.06;5031369;28;20053;-44
2021/03/14 00:54:29;;;;;;;6.25;0.88;;;10.50;99.90;;;9.91;66.52;99803.91;5030225;28;20037;-45
2021/03/14 00:56:55;;;;;;;14.77;0.90;;;10.50;99.90;;;9.90;66.75;99791.03;5031686;28;20124;-46
2021/03/14 00:59:21;;;;;;;12.55;0.90;;;10.50;99.90;;;9.90;66.73;99778.03;5031548;28;20033;-44
2021/03/14 01:01:47;;;;;;;8.57;0.60;;;10.50;99.90;;;9.85;67.06;99775.09;5030991;28;20042;-45
2021/03/14 01:04:13;;;;;;;9.98;1.10;;;10.40;99.90;;;9.84;67.01;99774.28;5030670;28;20081;-43
2021/03/14 01:06:39;;;;;;;8.65;0.65;;;10.40;99.90;;;9.87;67.26;99778.34;5031423;28;20033;-42
2021/03/14 01:09:05;;;;;;;6.82;0.70;;;10.40;99.90;;;9.85;67.22;99782.88;5030529;28;20041;-46
2021/03/14 01:11:31;;;;;;;9.25;1.08;;;10.40;99.90;;;9.80;67.87;99764.31;5030773;28;20041;-44
2021/03/14 01:13:57;;;;;;;8.82;1.25;;;10.40;99.90;;;9.81;67.59;99755.56;5028961;28;20366;-43
2021/03/14 01:16:23;;;;;;;10.25;1.50;;;10.40;99.90;;;9.82;67.46;99752.78;5031423;28;20034;-46
2021/03/14 01:18:48;;;;;;;9.27;1.08;;;10.40;99.90;;;9.79;67.45;99739.28;5030694;28;20215;-44
2021/03/14 01:21:14;;;;;;;9.45;1.00;;;10.40;99.90;;;9.80;67.12;99733.91;5031565;28;20459;-43
2021/03/14 01:23:40;;;;;;;11.77;1.30;;;10.40;99.90;;;9.79;67.51;99734.06;5030238;28;20087;-46
2021/03/14 01:26:07;;;;;;;9.10;0.63;;;10.40;99.90;;;9.80;67.22;99725.31;5030167;28;20059;-43
2021/03/14 01:28:34;;;;;;;13.35;1.02;;;10.40;99.90;;;9.81;67.61;99726.94;5031008;28;20040;-45
2021/03/14 01:31:01;;;;;;;9.38;1.45;;;10.40;99.90;;;9.76;67.74;99722.19;5030424;28;20025;-43
2021/03/14 01:33:27;;;;;;;9.75;0.73;;;10.40;99.90;;;9.71;68.01;99716.66;5031180;28;20041;-46
2021/03/14 01:35:54;;;;;;;7.40;0.65;;;10.30;99.90;;;9.69;68.14;99721.19;5030108;28;20109;-42
2021/03/14 01:38:20;;;;;;;10.95;0.70;;;10.30;99.90;;;9.64;68.15;99711.25;5029273;28;20087;-46
2021/03/14 01:40:46;;;;;;;9.30;0.95;;;10.20;99.90;;;9.71;67.87;99705.44;5029962;28;20037;-43
2021/03/14 01:43:12;;;;;;;8.43;0.60;;;10.20;99.90;;;9.67;68.06;99704.94;5030757;28;20432;-42
2021/03/14 01:45:38;;;;;;;12.65;1.30;;;10.30;99.90;;;9.64;68.23;99707.84;5029699;28;20037;-44
2021/03/14 01:48:06;;;;;;;12.75;1.08;;;10.20;99.90;;;9.64;68.15;99700.84;5030903;28;20130;-46
2021/03/14 01:50:36;;;;;;;19.08;1.15;;;10.20;99.90;;;9.65;67.84;99697.28;5028494;28;20083;-48
2021/03/14 01:53:02;;;;;;;11.05;1.23;;;10.20;99.90;;;9.64;67.70;99695.66;5028984;28;20041;-44
2021/03/14 01:55:28;;;;;;;9.02;1.17;;;10.20;99.90;;;9.70;67.67;99688.19;5011996;28;20493;-42
2021/03/14 01:57:54;;;;;;;11.45;1.05;;;10.20;99.90;;;9.72;67.57;99686.25;5030780;28;20037;-49
2021/03/14 02:00:24;;;;;;;12.32;0.88;;;10.30;99.90;;;9.70;67.69;99690.78;5029730;28;20041;-48
2021/03/14 02:02:50;;;;;;;10.50;0.43;;;10.30;99.90;;;9.70;67.55;99683.81;5030644;28;20053;-47
2021/03/14 02:05:20;;;;;;;9.18;0.93;;;10.30;99.90;;;9.71;67.55;99693.25;5029509;28;20030;-46
2021/03/14 02:07:51;;;;;;;9.13;1.05;;;10.30;99.90;;;9.72;67.63;99675.84;5029224;28;20077;-46
2021/03/14 02:10:23;;;;;;;10.95;0.63;;;10.30;99.90;;;9.74;67.47;99673.91;5009305;28;20044;-43
2021/03/14 02:13:47;;;;;;;10.65;1.48;;;10.30;99.90;;;9.73;67.26;99677.47;5028012;28;20392;-47
2021/03/14 02:16:22;;;;;;;10.05;0.85;;;10.30;99.90;;;9.63;67.91;99678.41;5024295;28;20129;-44
2021/03/14 02:18:53;;;;;;;11.05;0.80;;;10.20;99.90;;;9.61;67.78;99671.75;5012948;28;20116;-45
2021/03/14 02:21:20;;;;;;;8.30;0.82;;;10.20;99.90;;;9.63;67.71;99665.41;5010894;28;20392;-46
2021/03/14 02:24:00;;;;;;;12.60;0.88;;;10.20;99.90;;;9.62;67.69;99661.19;4995290;28;20076;-44
2021/03/14 02:26:45;;;;;;;10.68;1.30;;;10.20;99.90;;;9.56;68.02;99666.19;5007904;28;20091;-46
2021/03/14 02:29:22;;;;;;;11.82;1.60;;;10.10;99.90;;;9.48;68.29;99661.78;5010262;28;20046;-44
2021/03/14 02:31:52;;;;;;;10.27;1.08;;;10.10;99.90;;;9.44;68.56;99663.09;5003690;28;20033;-43
2021/03/14 02:34:27;;;;;;;7.13;0.60;;;10.00;99.90;;;9.42;68.31;99665.03;5007976;28;20049;-50
2021/03/14 02:36:55;;;;;;;12.63;0.90;;;10.00;99.90;;;9.39;68.66;99662.75;4992877;28;20037;-49
2021/03/14 02:39:26;;;;;;;12.82;1.10;;;10.00;99.90;;;9.38;68.31;99663.72;5008075;28;20034;-47
2021/03/14 02:41:55;;;;;;;12.10;1.08;;;10.00;99.90;;;9.36;68.50;99667.44;5029291;28;20042;-45
2021/03/14 02:44:34;;;;;;;8.27;0.88;;;9.90;99.90;;;9.40;67.54;99664.38;5012114;28;20060;-43
2021/03/14 02:47:01;;;;;;;10.63;0.80;;;10.00;99.90;;;9.42;67.99;99665.03;5007653;28;20042;-41
2021/03/14 02:49:27;;;;;;;10.18;0.77;;;10.00;99.90;;;9.38;67.89;99679.31;5010010;28;20131;-44
2021/03/14 02:51:54;;;;;;;8.60;1.20;;;10.00;99.90;;;9.33;68.52;99671.16;5018486;28;20146;-45
2021/03/14 02:54:22;;;;;;;7.97;1.10;;;9.90;99.90;;;9.27;68.88;99671.78;5007726;28;20397;-47
2021/03/14 02:56:50;;;;;;;9.52;0.70;;;9.90;99.90;;;9.28;68.50;99678.59;4996768;28;20493;-44
2021/03/14 02:59:21;;;;;;;11.10;0.85;;;9.90;99.90;;;9.36;68.25;99672.63;4992190;28;20048;-42
2021/03/14 03:01:50;;;;;;;18.27;1.92;;;9.90;99.90;;;9.40;68.54;99671.34;5014210;28;20159;-44
2021/03/14 03:04:26;;;;;;;14.60;1.85;;;9.90;99.90;;;9.44;68.30;99672.66;5002887;28;20435;-44
2021/03/14 03:06:57;;;;;;;14.35;0.88;;;10.00;99.90;;;9.42;68.42;99665.03;5009776;28;20066;-44
2021/03/14 03:09:24;;;;;;;10.25;1.00;;;10.00;99.90;;;9.41;68.67;99665.19;5025093;28;20382;-45
2021/03/14 03:14:31;;;;;;;7.88;0.95;;;10.00;99.90;;;9.36;68.88;99663.06;4825049;23;20061;-45
2021/03/14 03:16:58;;;;;;;6.57;1.00;;;9.90;99.90;;;9.33;69.01;99668.56;5006925;28;20034;-47
2021/03/14 03:19:25;;;;;;;11.57;0.90;;;9.90;99.90;;;9.33;68.76;99671.16;5008199;28;20045;-45
2021/03/14 03:21:52;;;;;;;8.07;0.68;;;9.90;99.90;;;9.34;68.73;99667.59;5008264;28;20132;-44
2021/03/14 03:24:18;;;;;;;6.32;0.65;;;9.90;99.90;;;9.33;68.91;99660.75;5023166;28;20033;-46
2021/03/14 03:26:48;;;;;;;9.00;1.15;;;9.90;99.90;;;9.32;69.25;99659.13;5028044;28;20044;-42
2021/03/14 03:29:17;;;;;;;13.80;2.70;;;9.90;99.90;;;9.34;68.93;99657.19;5028561;28;20579;-43
2021/03/14 03:31:45;;;;;;;10.13;0.90;;;9.90;99.90;;;9.30;69.24;99656.69;5029984;28;20616;-45
2021/03/14 03:34:12;;;;;;;9.70;1.02;;;9.90;99.90;;;9.26;69.75;99649.34;5048924;28;20044;-44
2021/03/14 03:36:40;;;;;;;10.38;1.30;;;9.90;99.90;;;9.24;69.57;99651.28;5027828;28;20041;-45
2021/03/14 03:39:09;;;;;;;11.90;1.00;;;9.80;99.90;;;9.24;69.56;99651.28;5030929;28;20095;-44
2021/03/14 03:41:51;;;;;;;11.07;0.90;;;9.80;99.90;;;9.24;70.25;99648.69;5026742;28;20057;-44
2021/03/14 03:44:21;;;;;;;8.07;1.10;;;9.80;99.90;;;9.26;69.88;99638.94;5008943;28;20048;-43
2021/03/14 03:46:51;;;;;;;11.57;0.95;;;9.80;99.90;;;9.21;69.92;99630.81;4997245;28;20586;-46
2021/03/14 03:49:21;;;;;;;10.88;0.98;;;9.80;99.90;;;9.24;70.37;99625.28;5048493;28;20029;-44
2021/03/14 03:51:49;;;;;;;10.48;0.85;;;9.80;99.90;;;9.27;70.38;99630.19;5026681;28;20042;-44
2021/03/14 03:54:16;;;;;;;13.32;1.60;;;9.80;99.90;;;9.26;70.57;99628.56;5026704;28;20124;-45
2021/03/14 03:56:43;;;;;;;9.02;1.70;;;9.80;99.90;;;9.28;70.83;99630.03;5027611;28;20483;-45
2021/03/14 03:59:09;;;;;;;23.13;1.98;;;9.80;99.90;;;9.29;70.84;99628.25;5028542;28;20032;-46
2021/03/14 04:01:37;;;;;;;7.55;0.95;;;9.90;99.90;;;9.25;71.36;99626.94;5027618;28;20115;-44
2021/03/14 04:04:05;;;;;;;13.13;1.33;;;9.80;99.90;;;9.30;71.14;99630.69;5008812;28;20117;-43
2021/03/14 04:06:31;;;;;;;8.52;1.35;;;9.80;99.90;;;9.28;71.57;99627.44;4997216;28;20430;-43
2021/03/14 04:09:00;;;;;;;8.70;1.20;;;9.80;99.90;;;9.28;71.58;99631.81;5010741;28;20383;-44
2021/03/14 04:11:27;;;;;;;12.55;2.13;;;9.90;99.90;;;9.28;71.40;99627.44;5010195;28;20033;-46
2021/03/14 04:13:54;;;;;;;10.75;1.58;;;9.80;99.90;;;9.32;71.62;99617.53;5009470;28;20053;-44
2021/03/14 04:16:22;;;;;;;11.13;1.33;;;9.90;99.90;;;9.37;71.46;99617.88;5009653;28;20057;-45
2021/03/14 04:18:50;;;;;;;16.92;2.72;;;9.90;99.90;;;9.40;71.21;99619.34;5010469;28;20473;-45
2021/03/14 04:21:19;;;;;;;13.70;1.52;;;10.00;99.90;;;9.43;71.14;99621.63;5026820;28;20485;-46
2021/03/14 04:23:50;;;;;;;13.90;2.03;;;10.00;99.90;;;9.44;71.38;99624.09;5035338;28;20156;-42
2021/03/14 04:26:21;;;;;;;11.63;1.95;;;10.00;99.90;;;9.42;71.44;99628.63;5027519;28;20056;-47
2021/03/14 04:28:50;;;;;;;12.35;1.15;;;10.00;99.90;;;9.46;71.09;99635.13;5027174;28;20099;-48
2021/03/14 04:31:17;;;;;;;13.25;1.50;;;10.00;99.90;;;9.45;71.16;99633.47;5027385;28;20578;-46
2021/03/14 04:33:44;;;;;;;13.07;2.28;;;10.00;99.90;;;9.47;71.08;99631.53;5027918;28;20477;-46
2021/03/14 04:36:13;;;;;;;9.32;1.05;;;10.00;99.90;;;9.54;71.15;99621.31;5009681;28;20359;-48
2021/03/14 04:38:40;;;;;;;11.52;1.80;;;10.10;99.90;;;9.53;70.85;99619.69;5011254;28;20381;-44
2021/03/14 04:41:07;;;;;;;10.63;1.20;;;10.10;99.90;;;9.52;70.75;99615.47;5028021;28;20476;-48
2021/03/14 04:43:34;;;;;;;10.40;1.30;;;10.10;99.90;;;9.57;70.46;99618.41;5026955;28;20033;-44
2021/03/14 04:46:01;;;;;;;8.48;0.80;;;10.10;99.90;;;9.58;70.29;99623.47;5027910;28;20033;-45
2021/03/14 04:48:27;;;;;;;12.07;0.85;;;10.10;99.90;;;9.61;70.35;99617.13;5019847;28;20029;-45
2021/03/14 04:50:54;;;;;;;7.38;1.33;;;10.10;99.90;;;9.57;70.34;99615.81;5031479;28;20034;-43
2021/03/14 04:53:25;;;;;;;15.25;1.10;;;10.10;99.90;;;9.55;70.70;99617.75;5026020;28;20136;-46
2021/03/14 04:55:53;;;;;;;9.75;0.90;;;10.10;99.90;;;9.50;71.23;99610.44;5027263;28;20041;-44
2021/03/14 04:58:23;;;;;;;9.35;0.90;;;10.10;99.90;;;9.47;71.63;99610.75;5014838;28;20037;-47
2021/03/14 05:00:50;;;;;;;13.23;1.20;;;10.10;99.90;;;9.48;71.45;99599.38;5026751;28;20037;-47
2021/03/14 05:03:21;;;;;;;7.57;1.30;;;10.00;99.90;;;9.48;71.82;99601.97;5010504;28;20072;-45
2021/03/14 05:05:48;;;;;;;11.73;1.10;;;10.00;99.90;;;9.39;72.51;99604.72;5010691;28;20064;-44
2021/03/14 05:08:20;;;;;;;18.33;2.05;;;10.00;99.90;;;9.26;74.10;99603.38;5009157;28;20559;-43
2021/03/14 05:10:50;;;;;;;12.15;0.77;;;9.90;99.90;;;9.19;74.50;99602.38;5010398;28;20025;-45
2021/03/14 05:13:18;;;;;;;12.30;0.95;;;9.90;99.90;;;9.13;74.90;99596.97;5026326;28;20393;-42
2021/03/14 05:15:48;;;;;;;11.10;0.73;;;9.70;99.90;;;9.04;75.45;99595.31;5027761;28;20025;-47
2021/03/14 05:18:15;;;;;;;12.25;1.10;;;9.60;99.90;;;9.04;75.25;99592.72;5009650;28;20153;-44
2021/03/14 05:20:41;;;;;;;9.75;1.05;;;9.60;99.90;;;9.02;75.57;99584.25;5009523;28;20049;-45
2021/03/14 05:23:08;;;;;;;5.97;0.60;;;9.60;99.90;;;8.98;76.32;99574.19;5026485;28;20123;-43
2021/03/14 05:25:34;;;;;;;21.05;1.27;;;9.60;99.90;;;8.98;76.26;99560.38;5030798;28;20038;-43
2021/03/14 05:28:02;;;;;;;12.50;0.90;;;9.60;99.90;;;8.98;76.57;99562.97;5029323;28;20480;-43
2021/03/14 05:30:36;;;;;;;11.82;1.58;;;9.60;99.90;;;8.92;77.21;99554.03;5013391;28;20067;-43
2021/03/14 05:33:03;;;;;;;12.48;0.98;;;9.50;99.90;;;8.86;77.47;99543.47;5030294;28;20052;-43
2021/03/14 05:35:31;;;;;;;13.63;1.25;;;9.50;99.90;;;8.81;77.90;99543.09;5031172;28;20112;-46
2021/03/14 05:38:00;;;;;;;14.55;1.13;;;9.40;99.90;;;8.77;78.30;99546.97;5029008;28;20034;-47
2021/03/14 05:40:28;;;;;;;14.75;1.00;;;9.40;99.90;;;8.73;78.59;99541.28;5030804;28;20029;-46
2021/03/14 05:42:57;;;;;;;11.05;1.20;;;9.30;99.90;;;8.71;78.77;99540.63;5012293;28;20038;-44
2021/03/14 05:45:24;;;;;;;9.25;1.02;;;9.30;99.90;;;8.77;78.33;99529.63;5045196;28;20128;-44
2021/03/14 05:47:51;;;;;;;9.82;0.95;;;9.40;99.90;;;8.76;78.54;99535.78;5015626;28;20124;-44
2021/03/14 05:50:29;;;;;;;12.55;1.00;;;9.30;99.90;;;8.80;78.98;99542.28;5030908;28;20034;-43
2021/03/14 05:52:56;;;;;;;12.30;0.65;;;9.30;99.90;;;8.83;78.58;99534.19;5026950;28;20061;-43
2021/03/14 05:55:25;;;;;;;8.82;0.70;;;9.40;99.90;;;8.89;78.12;99537.94;5031077;28;20384;-45
2021/03/14 05:57:53;;;;;;;8.45;0.70;;;9.40;99.90;;;8.90;78.35;99530.00;5029778;28;20396;-42
2021/03/14 06:00:27;;;;;;;9.00;0.90;;;9.50;99.90;;;8.91;78.39;99539.44;5028446;28;20040;-44
2021/03/14 06:02:59;;;;;;;11.90;1.40;;;9.50;99.90;;;9.00;78.11;99535.06;5029611;28;20041;-46
2021/03/14 06:05:27;;;;;;;10.73;1.00;;;9.50;99.90;;;9.06;77.49;99538.81;5030399;28;20030;-42
2021/03/14 06:07:55;;;;;;;9.00;1.23;;;9.60;99.90;;;9.10;77.65;99535.75;5029049;28;20100;-43
2021/03/14 06:10:23;;;;;;;16.67;1.30;;;9.60;99.90;;;9.17;76.73;99539.34;5030731;28;20048;-44
2021/03/14 06:12:49;;;;;;;12.57;1.25;;;9.70;99.90;;;9.25;76.36;99538.56;5040626;28;20052;-44
2021/03/14 06:15:15;;;;;;;10.60;1.42;;;9.80;99.90;;;9.23;76.68;99538.72;5031718;28;20051;-43
2021/03/14 06:17:42;;;;;;;17.83;1.00;;;9.80;99.90;;;9.26;76.31;99534.97;5029282;28;20037;-46
2021/03/14 06:20:32;;;;;;;12.52;1.27;;;9.80;99.90;;;9.30;75.48;99528.50;5030249;28;20155;-44
2021/03/14 06:23:13;;;;;;;5.88;0.70;;;9.80;99.90;;;9.47;73.76;99530.13;5027590;28;20083;-43
2021/03/14 06:25:43;;;;;;;7.72;1.27;;;9.90;99.90;;;9.54;73.50;99538.13;5030768;28;20068;-42
2021/03/14 06:28:10;;;;;;;11.68;0.88;;;10.00;99.90;;;9.60;73.36;99548.69;5029572;28;20037;-46
2021/03/14 06:30:37;;;;;;;9.88;1.15;;;10.10;99.90;;;9.60;73.61;99543.50;5029049;28;20044;-46
2021/03/14 06:33:16;;;;;;;11.57;1.65;;;10.10;99.90;;;9.61;73.08;99526.91;5028800;28;20777;-44
2021/03/14 06:35:53;;;;;;;6.72;0.82;;;10.20;99.90;;;9.63;72.69;99526.75;5029344;28;20065;-43
2021/03/14 06:38:25;;;;;;;7.85;0.90;;;10.20;99.90;;;9.68;72.18;99528.88;5028292;28;20034;-42
2021/03/14 06:40:54;;;;;;;16.08;3.17;;;10.20;99.90;;;9.71;71.87;99531.97;5030277;28;20439;-44
2021/03/14 06:43:20;;;;;;;8.55;1.95;;;10.30;99.90;;;9.75;71.53;99529.84;5011429;28;20547;-44
2021/03/14 06:45:46;;;;;;;10.77;1.30;;;10.30;99.90;;;9.77;71.81;99543.53;5028727;28;20030;-43
2021/03/14 06:48:23;;;;;;;8.68;1.20;;;10.30;99.90;;;9.79;71.52;99536.38;5029758;28;20511;-46
2021/03/14 06:50:48;;;;;;;9.02;0.60;;;10.30;99.90;;;9.80;71.50;99554.41;5012888;28;20439;-48
2021/03/14 06:53:17;;;;;;;9.18;0.90;;;10.40;99.90;;;9.81;71.11;99535.22;5028916;28;20124;-45
2021/03/14 06:55:48;;;;;;;7.18;0.88;;;10.40;99.90;;;9.84;71.07;99534.09;5028145;28;20033;-43
2021/03/14 06:58:29;;;;;;;9.48;0.80;;;10.40;99.90;;;9.88;70.52;99541.41;5029519;28;20029;-44
2021/03/14 07:01:21;;;;;;;8.63;1.08;;;10.40;99.90;;;9.91;70.33;99537.69;5029506;28;20144;-45
2021/03/14 07:03:54;;;;;;;8.93;1.02;;;10.50;99.90;;;9.95;70.20;99537.16;5029380;28;20045;-44
2021/03/14 07:06:29;;;;;;;5.60;1.10;;;10.50;99.90;;;10.02;70.02;99531.31;5029255;28;20037;-44
2021/03/14 07:09:09;;;;;;;8.83;1.00;;;10.50;99.90;;;10.03;70.31;99528.53;5029355;28;20025;-45
2021/03/14 07:11:42;;;;;;;6.20;0.47;;;10.50;99.90;;;10.14;69.00;99524.81;5029308;28;20105;-46
2021/03/14 07:14:17;;;;;;;4.13;0.57;;;10.60;99.90;;;10.22;69.53;99524.81;5028556;28;20508;-46
2021/03/14 07:16:50;;;;;;;5.10;0.68;;;10.70;99.90;;;10.18;69.79;99532.13;5028778;28;20049;-44
2021/03/14 07:19:28;;;;;;;13.30;1.33;;;10.70;99.90;;;10.12;70.16;99532.78;5028403;28;20042;-44
2021/03/14 07:22:10;;;;;;;7.78;0.80;;;10.70;99.90;;;10.10;70.23;99542.53;5024155;28;20030;-43
2021/03/14 07:24:43;;;;;;;8.88;1.30;;;10.70;99.90;;;10.07;70.66;99545.47;5023246;28;20492;-45
2021/03/14 07:27:12;;;;;;;8.73;0.70;;;10.70;99.90;;;10.10;70.24;99542.53;5029155;28;20116;-44
2021/03/14 07:29:39;;;;;;;6.53;0.85;;;10.70;99.90;;;10.20;70.16;99535.41;5027781;28;20029;-46
2021/03/14 07:32:08;;;;;;;7.43;0.50;;;10.70;99.90;;;10.30;69.92;99535.22;5024553;28;20033;-45
2021/03/14 07:34:34;;;;;;;7.88;0.95;;;10.80;99.90;;;10.38;70.32;99537.00;5029687;28;20136;-47
2021/03/14 07:37:01;;;;;;;9.10;1.08;;;10.90;99.90;;;10.46;69.97;99534.38;5046469;28;20451;-45
2021/03/14 07:39:28;;;;;;;8.50;1.77;;;11.00;99.90;;;10.52;69.74;99539.72;5029057;28;20587;-43
2021/03/14 07:41:54;;;;;;;10.48;2.47;;;11.00;99.90;;;10.55;69.95;99539.41;5030793;28;20025;-48
2021/03/14 07:44:23;;;;;;;5.55;0.70;;;11.10;99.90;;;10.58;69.67;99539.06;5029741;28;20071;-44
2021/03/14 07:46:51;;;;;;;7.90;0.70;;;11.10;99.90;;;10.54;69.66;99536.97;5030543;28;20466;-50
2021/03/14 07:49:20;;;;;;;5.60;0.93;;;11.10;99.90;;;10.50;70.17;99540.88;5033309;28;20477;-44
2021/03/14 07:52:08;;;;;;;5.47;0.90;;;11.10;99.90;;;10.46;70.21;99526.56;5028803;28;20035;-45
2021/03/14 07:54:48;;;;;;;9.40;0.63;;;11.10;99.90;;;10.40;70.61;99537.66;5032198;28;20033;-42
2021/03/14 07:57:20;;;;;;;10.27;0.60;;;11.00;99.90;;;10.25;71.14;99546.13;5032360;28;20043;-47
2021/03/14 07:59:46;;;;;;;9.05;1.58;;;10.90;99.90;;;10.20;71.58;99550.22;5010530;28;20053;-46
2021/03/14 08:02:20;;;;;;;11.93;2.10;;;10.80;99.90;;;10.15;71.43;99550.66;5020666;28;20070;-43
2021/03/14 08:04:48;;;;;;;11.70;1.52;;;10.70;99.90;;;10.08;71.95;99549.69;5048450;28;20483;-42
2021/03/14 08:07:15;;;;;;;10.73;1.20;;;10.70;99.90;;;10.11;72.30;99561.56;5037385;28;20036;-43
2021/03/14 08:09:45;;;;;;;11.27;1.85;;;10.70;99.90;;;10.14;72.57;99562.06;5029815;28;20179;-44
2021/03/14 08:12:39;;;;;;;12.40;2.20;;;10.70;99.90;;;10.16;72.78;99557.50;5040737;28;20029;-48
2021/03/14 08:15:24;;;;;;;9.45;1.73;;;10.70;99.90;;;10.21;72.98;99557.84;5037409;28;20057;-42
2021/03/14 08:17:52;;;;;;;8.15;1.70;;;10.70;99.90;;;10.35;72.52;99552.97;5040807;28;20037;-43
2021/03/14 08:20:39;;;;;;;11.77;2.55;;;10.90;99.90;;;10.59;71.83;99555.50;5027667;28;20478;-44
2021/03/14 08:23:08;;;;;;;8.48;2.45;;;11.10;99.90;;;10.75;71.40;99545.06;5039163;28;20716;-46
2021/03/14 08:25:41;;;;;;;11.07;3.90;;;11.30;99.90;;;10.99;71.18;99538.91;5029907;28;20053;-48
2021/03/14 08:28:34;;;;;;;12.02;2.58;;;11.40;99.90;;;11.22;71.46;99554.63;5024099;28;20048;-45
2021/03/14 08:31:07;;;;;;;13.05;3.88;;;11.60;99.90;;;11.33;71.20;99548.22;5026007;28;20058;-43
2021/03/14 08:33:41;;;;;;;16.02;3.80;;;11.80;99.90;;;11.30;71.36;99544.16;5028442;28;20037;-49
2021/03/14 08:36:29;;;;;;;12.88;3.25;;;11.90;99.90;;;11.25;71.71;99555.09;5027782;28;20026;-49
2021/03/14 08:38:55;;;;;;;10.65;2.85;;;11.90;99.90;;;11.15;71.64;99546.69;5029570;28;20449;-46
2021/03/14 08:41:22;;;;;;;7.60;1.42;;;11.80;99.90;;;11.05;71.95;99543.47;5043469;28;20036;-43
2021/03/14 08:43:52;;;;;;;10.20;2.50;;;11.70;99.90;;;11.07;71.14;99544.09;5038554;28;20106;-44
2021/03/14 08:46:18;;;;;;;15.15;2.42;;;11.60;99.90;;;11.07;70.62;99549.31;5026565;28;20069;-44
2021/03/14 08:48:45;;;;;;;9.30;1.45;;;11.60;99.90;;;11.08;70.48;99545.72;5027007;28;20041;-43
2021/03/14 08:51:12;;;;;;;9.73;1.23;;;11.70;99.90;;;11.09;70.57;99539.53;5035314;28;20034;-42
2021/03/14 08:53:39;;;;;;;11.70;0.98;;;11.70;99.90;;;11.30;70.23;99550.19;5027889;28;20119;-42
2021/03/14 08:56:08;;;;;;;7.50;2.25;;;11.80;99.90;;;11.45;70.04;99554.66;5030774;28;20032;-41
2021/03/14 08:58:35;;;;;;;6.80;1.77;;;12.00;99.90;;;11.66;69.78;99543.59;5032463;28;20055;-43
2021/03/14 09:01:01;;;;;;;8.70;2.33;;;12.10;99.90;;;11.78;69.53;99548.28;5012690;28;20137;-49
2021/03/14 09:03:28;;;;;;;7.28;1.48;;;12.30;99.90;;;12.01;67.84;99548.25;5040585;28;20404;-46
2021/03/14 09:06:12;;;;;;;5.70;1.15;;;12.40;99.90;;;11.96;67.68;99548.78;5023942;28;20037;-47
2021/03/14 09:08:50;;;;;;;9.77;1.05;;;12.50;99.90;;;12.13;67.85;99548.66;5031297;28;20045;-43
2021/03/14 09:11:55;;;;;;;5.45;0.70;;;12.60;99.90;;;12.35;66.58;99545.16;5017432;28;20321;-45
2021/03/14 09:14:31;;;;;;;8.68;1.73;;;12.90;99.90;;;12.30;67.01;99548.31;5026957;28;20053;-46
2021/03/14 09:17:18;;;;;;;;;;;12.90;99.90;;;12.21;66.41;99551.19;5031859;28;20046;-46
2021/03/14 09:19:52;;;;;;;10.55;2.40;;;12.90;99.90;;;12.13;67.60;99551.25;5014667;28;19925;-45
2021/03/14 09:22:24;;;;;;;11.15;2.28;;;12.90;99.90;;;12.06;67.84;99551.16;5031473;28;20042;-47
2021/03/14 09:24:54;;;;;;;9.93;1.33;;;12.80;99.90;;;12.02;67.95;99544.66;5030966;28;20095;-45
2021/03/14 09:27:22;;;;;;;8.63;2.30;;;12.70;99.90;;;12.12;67.81;99540.00;5031080;28;20042;-45
2021/03/14 09:30:07;;;;;;;3.97;0.60;;;12.70;99.90;;;12.09;68.08;99548.19;5030476;28;20044;-46
2021/03/14 09:32:46;;;;;;;5.60;1.05;;;12.60;99.90;;;11.98;68.50;99545.19;5043954;28;20095;-51
2021/03/14 09:35:31;;;;;;;8.05;1.30;;;12.60;99.90;;;12.03;68.57;99535.84;5011320;28;20052;-47
2021/03/14 09:38:04;;;;;;;5.00;1.00;;;12.60;99.90;;;12.09;68.68;99540.34;5036429;28;20029;-46
2021/03/14 09:40:38;;;;;;;7.22;1.40;;;12.60;99.90;;;12.26;68.55;99531.41;5031426;28;20037;-45
2021/03/14 09:43:08;;;;;;;7.45;1.10;;;12.70;99.90;;;12.47;68.18;99530.69;5030924;28;20034;-45
2021/03/14 09:45:35;;;;;;;5.40;0.90;;;12.90;99.90;;;12.52;68.36;99522.31;5048308;28;20033;-43
2021/03/14 09:48:05;;;;;;;9.40;1.52;;;13.00;99.90;;;12.63;68.55;99521.88;5050633;28;20056;-43
2021/03/14 09:50:44;;;;;;;9.63;1.92;;;13.10;99.90;;;12.72;69.12;99515.56;5046725;28;20085;-44
2021/03/14 09:53:11;;;;;;;9.05;1.35;;;13.20;99.90;;;12.87;67.83;99513.72;5029108;28;20480;-44
2021/03/14 09:56:11;;;;;;;6.45;1.10;;;13.40;99.90;;;13.05;67.05;99507.31;5024099;28;20038;-46
2021/03/14 09:58:38;;;;;;;6.40;1.67;;;13.60;99.90;;;13.24;66.95;99502.31;5024809;28;20141;-44
2021/03/14 10:01:11;;;;;;;8.30;1.27;;;13.70;99.90;;;13.72;65.79;99507.00;5029532;28;20032;-45
2021/03/14 10:03:37;;;;;;;8.93;2.17;;;14.10;99.90;;;13.87;66.10;99502.50;5028972;28;20088;-44
2021/03/14 10:06:07;;;;;;;6.95;0.77;;;14.40;99.90;;;14.03;65.22;99494.38;5048979;28;20462;-44
2021/03/14 10:08:36;;;;;;;8.07;1.75;;;14.50;99.90;;;14.04;65.29;99482.91;5049288;28;20056;-44
2021/03/14 10:11:06;;;;;;;9.63;1.52;;;14.60;99.90;;;14.01;65.29;99478.06;5033839;28;20148;-45
2021/03/14 10:13:35;;;;;;;9.45;0.88;;;14.70;99.90;;;14.21;65.16;99478.16;5050181;28;20152;-43
2021/03/14 10:16:06;;;;;;;7.15;1.23;;;14.80;99.90;;;14.87;63.24;99476.72;5040057;28;20048;-42
2021/03/14 10:18:32;;;;;;;7.88;1.00;;;15.20;99.90;;;15.38;61.28;99465.78;5050110;28;20120;-43
2021/03/14 10:21:25;;;;;;;7.15;0.63;;;15.80;99.90;;;15.34;60.24;99477.66;5011755;28;20029;-45
2021/03/14 10:24:12;;;;;;;3.40;0.50;;;16.00;99.90;;;15.31;61.46;99483.31;5010488;28;20050;-45
2021/03/14 10:27:00;;;;;;;6.60;0.63;;;16.00;99.90;;;15.23;59.55;99470.38;5041026;28;20033;-44
2021/03/14 10:29:34;;;;;;;7.00;0.60;;;15.90;98.70;;;15.14;61.11;99476.81;5049955;28;20567;-47
2021/03/14 10:32:01;;;;;;;5.85;1.35;;;15.80;99.90;;;15.35;61.39;99475.84;5029793;28;20034;-43
2021/03/14 10:34:27;;;;;;;7.85;1.50;;;16.00;99.90;;;15.08;61.38;99472.38;5028189;28;20080;-42
2021/03/14 10:36:54;;;;;;;6.43;1.33;;;15.90;99.40;;;14.80;62.42;99465.41;5048127;28;20438;-44
2021/03/14 10:39:30;;;;;;;9.27;1.00;;;15.70;99.90;;;14.53;61.75;99467.13;5040676;28;20359;-44